Terminal Aerodrome Forecast
Issued by NWS Mt. Holly, NJ

Home | Current Version | Previous Version | Text Only | Print | Product List | Glossary On
Versions: 1 2 3 4 5 6 7 8 9 10 11 12 13 14 15 16 17 18 19 20 21 22 23 24 25 26 27 28 29 30 31 32 33 34 35 36 37
000
FTUS41 KPHI 200819 AAA
TAFPHL
TAF AMD
KPHL 200819Z 2008/2112 35010KT P6SM SCT035
      TEMPO 2008/2012 BKN025
     FM201400 34012G20KT P6SM SCT050
     FM201900 34010G18KT P6SM BKN050
     FM210100 33008KT P6SM SCT080=

USA.gov is the U.S. government's official web portal to all federal, state and local government web resources and services.